Time;durP1;ratioP1;P1;durP2;ratioP2;P2;SDS_P1;SDS_P2;PMS_P1;PMS_P2;Temp;Humidity;BMP_temperature;BMP_pressure;BME280_temperature;BME280_humidity;BME280_pressure;Samples;Min_cycle;Max_cycle;Signal;HPM_P1;HPM_P2
2024/01/31 00:01:20;;;;;;;92.60;53.42;;;16.60;63.40;;;;;;5001992;28;89329;-83
2024/01/31 00:03:46;;;;;;;93.97;53.45;;;16.60;63.60;;;;;;4998212;28;91058;-83
2024/01/31 00:06:12;;;;;;;93.30;53.55;;;16.60;63.50;;;;;;5002624;28;94126;-83
2024/01/31 00:08:38;;;;;;;93.70;53.60;;;16.50;63.50;;;;;;5005228;28;89269;-83
2024/01/31 00:11:04;;;;;;;93.25;53.63;;;16.50;63.70;;;;;;4984914;28;89406;-83
2024/01/31 00:13:29;;;;;;;92.80;53.83;;;16.50;63.70;;;;;;5005618;28;89721;-83
2024/01/31 00:15:55;;;;;;;93.18;53.80;;;16.50;63.80;;;;;;5007926;28;89842;-83
2024/01/31 00:18:21;;;;;;;93.10;53.45;;;16.50;63.70;;;;;;4984214;28;89245;-84
2024/01/31 00:20:46;;;;;;;92.30;52.92;;;16.40;63.70;;;;;;5001976;28;88648;-83
2024/01/31 00:23:12;;;;;;;92.32;53.08;;;16.40;63.80;;;;;;4999251;28;89489;-84
2024/01/31 00:25:38;;;;;;;93.70;53.53;;;16.40;63.80;;;;;;4983666;28;92754;-83
2024/01/31 00:28:04;;;;;;;92.30;53.45;;;16.40;63.80;;;;;;4995738;28;91156;-84
2024/01/31 00:30:29;;;;;;;93.45;53.70;;;16.40;63.90;;;;;;5001917;28;89384;-84
2024/01/31 00:32:55;;;;;;;92.38;53.58;;;16.40;63.90;;;;;;4998505;28;90555;-84
2024/01/31 00:35:21;;;;;;;93.55;53.47;;;16.40;63.90;;;;;;5002784;28;92142;-84
2024/01/31 00:37:46;;;;;;;93.15;53.75;;;16.40;63.90;;;;;;5001082;28;89476;-83
2024/01/31 00:40:12;;;;;;;93.15;53.40;;;16.30;63.90;;;;;;5002430;28;89572;-83
2024/01/31 00:42:39;;;;;;;93.00;53.63;;;16.30;64.00;;;;;;5003661;28;89380;-83
2024/01/31 00:45:07;;;;;;;92.80;53.60;;;16.30;64.10;;;;;;5001703;28;89800;-83
2024/01/31 00:47:33;;;;;;;93.03;53.40;;;16.30;64.00;;;;;;4981675;28;90225;-83
2024/01/31 00:49:59;;;;;;;93.40;53.25;;;16.30;64.10;;;;;;5000332;28;90276;-83
2024/01/31 00:52:25;;;;;;;94.75;53.85;;;16.30;64.20;;;;;;4999007;28;90965;-83
2024/01/31 00:54:50;;;;;;;92.13;53.50;;;16.30;64.20;;;;;;4978358;28;93272;-84
2024/01/31 00:57:17;;;;;;;92.85;53.33;;;16.30;64.10;;;;;;4997328;28;92241;-83
2024/01/31 00:59:43;;;;;;;92.75;53.28;;;16.30;64.20;;;;;;5000890;28;89495;-86
2024/01/31 01:02:09;;;;;;;92.10;52.92;;;16.20;64.10;;;;;;5004671;28;89998;-83
2024/01/31 01:04:35;;;;;;;91.97;52.80;;;16.20;64.10;;;;;;5003767;28;89874;-83
2024/01/31 01:07:00;;;;;;;92.65;53.80;;;16.20;64.10;;;;;;5001604;28;89166;-83
2024/01/31 01:09:26;;;;;;;92.88;53.65;;;16.20;64.00;;;;;;5005924;28;88293;-83
2024/01/31 01:11:52;;;;;;;93.25;53.55;;;16.20;64.00;;;;;;5001725;28;89797;-84
2024/01/31 01:14:17;;;;;;;91.60;53.17;;;16.20;63.90;;;;;;5005558;28;89111;-85
2024/01/31 01:16:43;;;;;;;92.97;53.78;;;16.20;64.00;;;;;;5006662;28;90386;-84
2024/01/31 01:19:09;;;;;;;91.25;52.97;;;16.20;64.00;;;;;;5002291;28;89792;-84
2024/01/31 01:21:35;;;;;;;92.85;53.58;;;16.20;64.00;;;;;;4993245;28;92729;-85
2024/01/31 01:24:01;;;;;;;92.57;53.00;;;16.20;63.90;;;;;;5012335;28;89531;-87
2024/01/31 01:26:27;;;;;;;92.88;53.25;;;16.20;63.90;;;;;;4994249;28;89187;-85
2024/01/31 01:28:52;;;;;;;91.60;53.00;;;16.10;63.90;;;;;;4995085;28;91913;-87
2024/01/31 01:31:18;;;;;;;92.82;53.28;;;16.10;64.00;;;;;;4989784;28;91879;-80
2024/01/31 01:33:44;;;;;;;92.20;53.13;;;16.10;63.90;;;;;;5004124;28;90618;-79
2024/01/31 01:36:10;;;;;;;92.18;52.88;;;16.10;63.90;;;;;;5000129;28;89992;-79
2024/01/31 01:38:38;;;;;;;92.05;52.90;;;16.10;63.90;;;;;;4999733;28;89425;-78
2024/01/31 01:41:04;;;;;;;91.88;52.90;;;16.10;63.90;;;;;;5004565;28;91234;-78
2024/01/31 01:43:30;;;;;;;93.43;53.35;;;16.10;64.00;;;;;;5003281;28;93146;-80
2024/01/31 01:46:21;;;;;;;91.57;53.40;;;16.10;64.00;;;;;;5002691;28;90461;-83
2024/01/31 01:48:50;;;;;;;92.10;53.10;;;16.10;64.10;;;;;;5006147;28;89716;-83
2024/01/31 01:51:17;;;;;;;92.30;53.75;;;16.10;64.10;;;;;;5005626;28;89922;-83
2024/01/31 01:53:45;;;;;;;91.53;53.20;;;16.00;64.20;;;;;;4984515;28;91518;-84
2024/01/31 01:56:15;;;;;;;91.15;52.90;;;16.00;64.20;;;;;;5001455;28;89244;-83
2024/01/31 01:58:41;;;;;;;92.15;53.25;;;16.00;64.30;;;;;;5013559;28;89086;-83
2024/01/31 02:01:12;;;;;;;91.53;53.08;;;16.00;64.30;;;;;;5013548;28;89634;-83
2024/01/31 02:03:37;;;;;;;92.45;53.03;;;16.00;64.30;;;;;;5004675;28;89453;-83
2024/01/31 02:06:03;;;;;;;92.40;53.03;;;16.00;64.20;;;;;;5002952;28;90764;-83
2024/01/31 02:08:30;;;;;;;92.57;52.97;;;16.00;64.30;;;;;;4989986;28;89333;-81
2024/01/31 02:10:56;;;;;;;91.22;53.05;;;15.90;64.30;;;;;;4999963;28;90566;-82
2024/01/31 02:13:23;;;;;;;92.07;53.30;;;15.90;64.30;;;;;;5001266;28;90191;-82
2024/01/31 02:15:55;;;;;;;92.60;53.42;;;16.00;64.30;;;;;;5007177;28;91481;-82
2024/01/31 02:18:22;;;;;;;92.15;53.22;;;16.00;64.30;;;;;;5006334;28;89368;-81
2024/01/31 02:20:48;;;;;;;93.03;53.38;;;15.90;64.30;;;;;;5002165;28;90882;-82
2024/01/31 02:23:14;;;;;;;92.18;53.30;;;15.90;64.40;;;;;;5003927;28;89740;-80
2024/01/31 02:25:39;;;;;;;92.28;53.58;;;15.90;64.40;;;;;;5003178;28;89483;-81
2024/01/31 02:28:05;;;;;;;91.97;53.28;;;15.90;64.40;;;;;;5004004;28;89549;-81
2024/01/31 02:30:31;;;;;;;94.00;53.35;;;15.90;65.20;;;;;;4984729;28;95245;-81
2024/01/31 02:32:56;;;;;;;91.32;53.10;;;15.90;64.50;;;;;;5018887;28;92565;-83
2024/01/31 02:35:23;;;;;;;92.07;53.08;;;15.90;64.40;;;;;;5007196;28;89050;-87
2024/01/31 02:37:49;;;;;;;92.25;53.33;;;15.90;64.40;;;;;;5004511;28;89792;-85
2024/01/31 02:40:15;;;;;;;91.93;53.13;;;15.90;64.50;;;;;;4996370;28;90313;-87
2024/01/31 02:42:41;;;;;;;90.90;53.03;;;15.80;64.40;;;;;;5001741;28;90321;-81
2024/01/31 02:45:08;;;;;;;92.45;52.88;;;15.90;64.40;;;;;;4999055;28;90130;-78
2024/01/31 02:47:33;;;;;;;92.05;53.17;;;15.80;64.50;;;;;;5002728;28;89100;-87
2024/01/31 02:50:00;;;;;;;91.47;53.00;;;15.80;64.50;;;;;;5004978;28;90138;-86
2024/01/31 02:52:26;;;;;;;91.40;52.72;;;15.80;64.50;;;;;;5004796;28;89162;-85
2024/01/31 02:54:51;;;;;;;91.32;53.33;;;15.80;64.50;;;;;;4983073;28;90274;-84
2024/01/31 02:57:18;;;;;;;92.03;53.45;;;15.80;64.50;;;;;;4990419;28;89499;-85
2024/01/31 02:59:43;;;;;;;91.82;53.22;;;15.80;64.60;;;;;;5004655;28;89778;-87
2024/01/31 03:02:09;;;;;;;91.05;53.03;;;15.80;64.60;;;;;;4983932;28;92710;-86
2024/01/31 03:04:34;;;;;;;93.53;53.33;;;15.80;64.50;;;;;;5002249;28;89341;-87
2024/01/31 03:07:00;;;;;;;91.63;53.40;;;15.80;64.60;;;;;;5003069;28;90410;-87
2024/01/31 03:09:27;;;;;;;90.80;52.75;;;15.80;64.60;;;;;;5001777;28;89551;-85
2024/01/31 03:11:53;;;;;;;91.00;53.08;;;15.80;64.60;;;;;;5008962;28;89388;-86
2024/01/31 03:14:19;;;;;;;91.05;53.15;;;15.70;64.50;;;;;;5016525;28;89475;-85
2024/01/31 03:16:45;;;;;;;91.93;52.78;;;15.70;64.60;;;;;;5005404;28;88934;-84
2024/01/31 03:19:11;;;;;;;90.97;52.95;;;15.70;64.70;;;;;;5019273;28;91066;-83
2024/01/31 03:21:37;;;;;;;91.68;52.85;;;15.70;64.70;;;;;;5017732;28;90490;-88
2024/01/31 03:24:03;;;;;;;90.85;52.90;;;15.70;64.70;;;;;;4990030;28;89685;-86
2024/01/31 03:26:28;;;;;;;91.15;53.10;;;15.70;64.80;;;;;;4990265;28;88600;-87
2024/01/31 03:28:54;;;;;;;91.32;52.67;;;15.70;64.80;;;;;;4982915;28;89965;-88
2024/01/31 03:31:20;;;;;;;92.60;53.30;;;15.70;64.80;;;;;;4989326;28;89681;-88
2024/01/31 03:33:46;;;;;;;92.03;53.03;;;15.70;64.90;;;;;;4997207;28;89552;-84
2024/01/31 03:36:12;;;;;;;91.53;53.33;;;15.60;64.90;;;;;;4975150;28;88375;-87
2024/01/31 03:38:39;;;;;;;91.60;53.17;;;15.60;64.80;;;;;;4989944;28;89371;-89
2024/01/31 03:41:05;;;;;;;90.78;53.10;;;15.70;64.90;;;;;;4983811;28;89313;-88
2024/01/31 03:43:31;;;;;;;91.78;53.15;;;15.60;64.80;;;;;;4952994;28;91252;-87
2024/01/31 03:45:57;;;;;;;91.65;53.28;;;15.60;64.80;;;;;;4984775;28;89585;-89
2024/01/31 03:48:22;;;;;;;91.63;52.80;;;15.60;64.80;;;;;;4975037;28;92613;-90
2024/01/31 03:50:48;;;;;;;91.93;53.30;;;15.60;64.90;;;;;;4991462;28;89153;-85
2024/01/31 03:53:14;;;;;;;90.45;52.88;;;15.60;64.90;;;;;;5008639;28;89838;-89
2024/01/31 03:55:40;;;;;;;90.30;52.88;;;15.60;65.00;;;;;;4984099;28;89306;-86
2024/01/31 03:58:06;;;;;;;91.07;52.85;;;15.60;65.00;;;;;;4980279;28;92402;-84
2024/01/31 04:00:31;;;;;;;91.53;53.03;;;15.60;65.00;;;;;;4982366;28;90710;-87
2024/01/31 04:02:57;;;;;;;92.30;53.28;;;15.60;65.00;;;;;;4994694;28;89771;-85
2024/01/31 04:05:23;;;;;;;90.68;52.90;;;15.60;65.00;;;;;;4979784;28;89089;-87
2024/01/31 04:07:48;;;;;;;91.90;53.05;;;15.60;65.00;;;;;;4988948;28;91150;-88
2024/01/31 04:10:14;;;;;;;91.63;53.25;;;15.60;65.00;;;;;;4981103;28;90583;-79
2024/01/31 04:12:41;;;;;;;91.35;53.13;;;15.60;65.00;;;;;;4975054;28;90456;-78
2024/01/31 04:15:07;;;;;;;90.70;52.90;;;15.60;65.00;;;;;;4995369;28;89758;-79
2024/01/31 04:17:33;;;;;;;92.15;53.17;;;15.60;65.00;;;;;;4982941;28;91155;-79
2024/01/31 04:19:58;;;;;;;90.75;52.85;;;15.60;65.10;;;;;;4978428;28;90518;-79
2024/01/31 04:22:24;;;;;;;91.93;53.25;;;15.50;65.00;;;;;;4981763;28;89770;-78
2024/01/31 04:24:51;;;;;;;89.97;52.42;;;15.50;65.10;;;;;;4980600;28;89156;-78
2024/01/31 04:27:17;;;;;;;90.65;52.90;;;15.50;65.00;;;;;;4960434;28;92382;-79
2024/01/31 04:29:43;;;;;;;92.50;52.63;;;15.60;65.10;;;;;;4970510;28;90530;-79
2024/01/31 04:32:08;;;;;;;91.47;53.20;;;15.50;65.80;;;;;;4977952;28;90916;-80
2024/01/31 04:34:38;;;;;;;91.43;53.20;;;15.50;65.10;;;;;;4984246;28;90276;-79
2024/01/31 04:37:04;;;;;;;91.85;53.20;;;15.50;65.10;;;;;;4981357;28;90240;-79
2024/01/31 04:39:29;;;;;;;90.95;53.15;;;15.50;65.10;;;;;;4949707;28;93725;-79
2024/01/31 04:41:55;;;;;;;91.38;53.25;;;15.50;65.10;;;;;;4966248;28;89726;-78
2024/01/31 04:44:21;;;;;;;89.95;52.38;;;15.50;65.10;;;;;;4970106;28;90790;-79
2024/01/31 04:46:46;;;;;;;90.90;53.10;;;15.50;65.10;;;;;;4985709;28;90778;-79
2024/01/31 04:49:12;;;;;;;90.55;52.67;;;15.50;65.00;;;;;;5002682;28;94072;-79
2024/01/31 04:51:41;;;;;;;90.82;53.05;;;15.50;65.00;;;;;;4982288;28;89859;-79
2024/01/31 04:54:07;;;;;;;90.07;52.80;;;15.50;65.00;;;;;;4983442;28;90160;-80
2024/01/31 04:56:34;;;;;;;91.05;53.00;;;15.50;65.00;;;;;;4984057;28;90700;-79
2024/01/31 04:58:59;;;;;;;90.30;52.80;;;15.50;65.00;;;;;;4982350;28;91501;-80
2024/01/31 05:01:25;;;;;;;90.35;52.97;;;15.50;65.10;;;;;;4996244;28;89548;-79
2024/01/31 05:03:50;;;;;;;90.50;52.83;;;15.40;65.00;;;;;;4975930;28;89937;-82
2024/01/31 05:06:16;;;;;;;92.05;53.00;;;15.40;65.20;;;;;;4980888;28;93565;-81
2024/01/31 05:08:42;;;;;;;91.72;52.80;;;15.40;65.20;;;;;;4966362;28;92699;-81
2024/01/31 05:11:07;;;;;;;91.88;53.13;;;15.40;65.10;;;;;;4980286;28;89541;-82
2024/01/31 05:13:33;;;;;;;91.80;53.08;;;15.40;65.10;;;;;;4968367;28;89337;-82
2024/01/31 05:15:59;;;;;;;90.43;52.95;;;15.40;65.10;;;;;;4985805;28;91918;-81
2024/01/31 05:18:25;;;;;;;91.53;53.10;;;15.40;65.10;;;;;;4996888;28;90922;-82
2024/01/31 05:20:50;;;;;;;90.32;53.10;;;15.40;65.10;;;;;;4985471;28;91044;-83
2024/01/31 05:23:16;;;;;;;90.85;52.92;;;15.40;65.90;;;;;;4990859;28;89543;-82
2024/01/31 05:25:42;;;;;;;90.63;52.70;;;15.40;65.20;;;;;;4982325;28;92996;-81
2024/01/31 05:28:07;;;;;;;91.18;52.80;;;15.40;65.20;;;;;;5008003;28;90886;-81
2024/01/31 05:30:33;;;;;;;90.38;52.53;;;15.40;65.20;;;;;;5004742;28;89412;-82
2024/01/31 05:32:58;;;;;;;90.13;52.85;;;15.40;65.30;;;;;;5011767;28;89362;-80
2024/01/31 05:35:25;;;;;;;93.18;52.95;;;15.30;65.30;;;;;;5009471;28;89632;-81
2024/01/31 05:37:50;;;;;;;90.07;52.85;;;15.40;65.40;;;;;;5004570;28;90095;-81
2024/01/31 05:40:18;;;;;;;91.85;53.08;;;15.30;65.40;;;;;;5002746;28;89432;-81
2024/01/31 05:42:43;;;;;;;92.13;52.90;;;15.30;65.40;;;;;;4996401;28;89558;-79
2024/01/31 05:45:09;;;;;;;91.03;53.38;;;15.40;65.50;;;;;;4982555;28;94629;-80
2024/01/31 05:47:35;;;;;;;90.68;53.10;;;15.40;65.50;;;;;;5002475;28;90381;-78
2024/01/31 05:50:01;;;;;;;91.60;53.38;;;15.40;65.60;;;;;;4982274;28;90747;-79
2024/01/31 05:52:27;;;;;;;91.18;52.88;;;15.30;65.60;;;;;;5000822;28;90526;-78
2024/01/31 05:54:52;;;;;;;91.45;53.03;;;15.40;65.80;;;;;;5002369;28;90451;-80
2024/01/31 05:57:18;;;;;;;90.75;53.42;;;15.40;66.20;;;;;;5003515;28;90848;-78
2024/01/31 05:59:44;;;;;;;92.80;52.67;;;15.40;66.40;;;;;;5003154;28;90355;-78
2024/01/31 06:02:09;;;;;;;91.20;53.45;;;15.40;66.60;;;;;;4983361;28;88851;-78
2024/01/31 06:04:35;;;;;;;90.97;53.42;;;15.40;66.70;;;;;;4998264;28;90068;-79
2024/01/31 06:07:01;;;;;;;90.88;53.35;;;15.40;66.90;;;;;;4993950;28;90079;-76
2024/01/31 06:09:26;;;;;;;91.63;53.72;;;15.30;66.80;;;;;;4998306;28;90831;-78
2024/01/31 06:11:52;;;;;;;92.75;53.13;;;15.30;66.70;;;;;;4993636;28;89820;-77
2024/01/31 06:14:18;;;;;;;93.15;53.30;;;15.30;66.80;;;;;;4979975;28;95196;-77
2024/01/31 06:16:43;;;;;;;93.10;53.33;;;15.30;67.00;;;;;;5001109;28;90636;-77
2024/01/31 06:19:09;;;;;;;91.88;52.97;;;15.30;66.90;;;;;;5002728;28;89467;-79
2024/01/31 06:21:35;;;;;;;91.70;53.33;;;15.30;67.90;;;;;;4978910;28;90375;-77
2024/01/31 06:24:00;;;;;;;91.35;52.85;;;15.30;67.00;;;;;;5000227;28;93818;-79
2024/01/31 06:26:30;;;;;;;91.28;53.38;;;15.30;67.00;;;;;;4997283;28;92991;-77
2024/01/31 06:28:56;;;;;;;92.03;53.55;;;15.30;66.90;;;;;;4980977;28;90612;-80
2024/01/31 06:31:28;;;;;;;91.03;53.25;;;15.30;67.10;;;;;;4998675;28;90750;-82
2024/01/31 06:33:54;;;;;;;93.25;53.30;;;15.30;67.00;;;;;;4991394;28;90641;-86
2024/01/31 06:36:20;;;;;;;92.05;53.13;;;15.40;67.00;;;;;;4995131;28;93542;-85
2024/01/31 06:38:46;;;;;;;96.13;53.47;;;15.30;67.10;;;;;;4984253;28;89795;-78
2024/01/31 06:41:16;;;;;;;92.40;53.08;;;15.40;67.60;;;;;;4998741;28;89712;-84
2024/01/31 06:43:42;;;;;;;93.95;53.58;;;15.50;67.60;;;;;;5014480;28;90012;-81
2024/01/31 06:46:07;;;;;;;96.45;53.67;;;15.50;67.80;;;;;;5006579;28;89493;-81
2024/01/31 06:48:33;;;;;;;92.07;53.22;;;15.40;67.60;;;;;;4999139;28;89934;-84
2024/01/31 06:50:59;;;;;;;91.55;53.30;;;15.40;67.70;;;;;;5006665;28;87961;-87
2024/01/31 06:53:24;;;;;;;92.50;52.80;;;15.40;67.90;;;;;;4999228;28;89833;-81
2024/01/31 06:55:51;;;;;;;93.55;52.80;;;15.40;68.20;;;;;;4986578;28;93585;-80
2024/01/31 06:58:16;;;;;;;97.00;53.33;;;15.50;68.20;;;;;;4998419;28;92588;-79
2024/01/31 07:00:42;;;;;;;96.85;53.70;;;15.50;68.40;;;;;;5004348;28;89732;-76
2024/01/31 07:03:08;;;;;;;91.15;52.97;;;15.60;68.10;;;;;;5000946;28;94293;-75
2024/01/31 07:05:34;;;;;;;99.25;53.42;;;15.50;67.70;;;;;;5001109;28;90940;-75
2024/01/31 07:07:59;;;;;;;99.30;53.35;;;15.60;67.70;;;;;;4985641;28;89432;-79
2024/01/31 07:10:25;;;;;;;95.82;53.13;;;15.60;67.70;;;;;;4984311;28;89753;-81
2024/01/31 07:12:52;;;;;;;95.95;52.92;;;15.70;67.70;;;;;;4996952;28;91611;-76
2024/01/31 07:15:22;;;;;;;95.60;53.33;;;15.70;67.40;;;;;;4998358;28;90428;-78
2024/01/31 07:17:47;;;;;;;97.72;53.00;;;15.70;67.40;;;;;;5003703;28;90172;-77
2024/01/31 07:20:13;;;;;;;98.45;53.22;;;15.70;67.30;;;;;;4999506;28;89825;-77
2024/01/31 07:22:39;;;;;;;95.35;52.90;;;15.70;67.40;;;;;;4997052;28;91713;-86
2024/01/31 07:25:10;;;;;;;93.55;53.28;;;15.70;67.20;;;;;;4987610;28;93338;-77
2024/01/31 07:27:38;;;;;;;;;;;15.70;67.20;;;;;;4998607;28;89744;-83
2024/01/31 07:30:04;;;;;;;93.65;52.88;;;15.70;66.40;;;;;;4995837;28;89457;-80
2024/01/31 07:32:30;;;;;;;96.93;53.40;;;15.90;66.20;;;;;;5002077;28;93706;-84
2024/01/31 07:34:55;;;;;;;96.32;53.38;;;16.00;65.50;;;;;;5000919;28;89307;-80
2024/01/31 07:37:21;;;;;;;96.13;53.15;;;16.00;66.00;;;;;;5001364;28;89444;-80
2024/01/31 07:39:48;;;;;;;96.97;53.50;;;16.10;65.10;;;;;;5003736;28;88333;-85
2024/01/31 07:42:14;;;;;;;101.07;53.30;;;16.10;64.80;;;;;;4995603;28;90493;-78
2024/01/31 07:44:39;;;;;;;96.53;53.25;;;16.10;64.70;;;;;;5000759;28;89627;-76
2024/01/31 07:47:05;;;;;;;93.72;53.00;;;16.10;64.70;;;;;;4996645;28;91555;-74
2024/01/31 07:49:31;;;;;;;94.15;53.22;;;16.10;64.50;;;;;;5002002;28;90082;-74
2024/01/31 07:51:57;;;;;;;96.28;53.13;;;16.10;64.40;;;;;;4994427;28;92443;-73
2024/01/31 07:54:23;;;;;;;93.35;53.42;;;16.10;64.40;;;;;;4997844;28;91846;-74
2024/01/31 07:56:48;;;;;;;93.07;53.13;;;16.10;64.20;;;;;;4998836;28;90757;-76
2024/01/31 07:59:14;;;;;;;96.78;52.97;;;16.10;64.10;;;;;;5001046;28;89467;-75
2024/01/31 08:01:40;;;;;;;95.47;53.03;;;16.10;63.80;;;;;;4999453;28;91984;-74
2024/01/31 08:04:06;;;;;;;92.13;53.35;;;16.10;63.80;;;;;;5000788;28;89887;-74
2024/01/31 08:06:32;;;;;;;95.47;53.42;;;16.10;63.70;;;;;;4996349;28;89565;-76
2024/01/31 08:08:58;;;;;;;91.90;52.85;;;16.20;63.70;;;;;;4977076;28;89667;-75
2024/01/31 08:11:23;;;;;;;94.60;52.95;;;16.10;63.80;;;;;;4976656;28;95290;-74
2024/01/31 08:13:49;;;;;;;95.75;53.10;;;16.20;64.60;;;;;;4999241;28;89879;-75
2024/01/31 08:16:15;;;;;;;94.25;52.97;;;16.10;64.30;;;;;;4996294;28;89867;-74
2024/01/31 08:18:40;;;;;;;96.50;53.22;;;16.20;64.30;;;;;;4998537;28;90378;-74
2024/01/31 08:21:06;;;;;;;93.30;52.70;;;16.10;64.30;;;;;;4985936;28;90070;-74
2024/01/31 08:23:32;;;;;;;95.28;53.10;;;16.10;64.30;;;;;;4991523;28;90036;-74
2024/01/31 08:25:58;;;;;;;92.93;52.88;;;16.20;64.20;;;;;;4994257;28;89550;-73
2024/01/31 08:28:23;;;;;;;96.60;53.42;;;16.20;64.20;;;;;;4994803;28;88775;-73
2024/01/31 08:30:49;;;;;;;96.63;52.92;;;16.20;64.20;;;;;;4984339;28;89677;-75
2024/01/31 08:33:14;;;;;;;93.13;53.38;;;16.20;64.20;;;;;;4999143;28;90418;-73
2024/01/31 08:35:40;;;;;;;93.53;52.92;;;16.20;64.30;;;;;;4988940;28;91558;-74
2024/01/31 08:38:06;;;;;;;93.00;53.20;;;16.10;64.20;;;;;;4997649;28;89796;-71
2024/01/31 08:40:31;;;;;;;92.35;52.63;;;16.20;64.30;;;;;;4997401;28;90612;-74
2024/01/31 08:42:58;;;;;;;93.53;53.13;;;16.20;64.30;;;;;;5005358;28;90654;-78
2024/01/31 08:45:25;;;;;;;96.20;52.70;;;16.10;64.50;;;;;;4998149;28;90259;-77
2024/01/31 08:47:51;;;;;;;93.47;53.10;;;16.20;65.80;;;;;;4991233;28;88973;-78
2024/01/31 08:50:16;;;;;;;95.53;52.65;;;16.10;65.80;;;;;;4970527;28;92982;-77
2024/01/31 08:52:42;;;;;;;96.18;53.33;;;16.00;66.00;;;;;;4990734;28;89154;-77
2024/01/31 08:55:08;;;;;;;92.82;53.03;;;16.00;65.70;;;;;;5004017;28;89657;-77
2024/01/31 08:57:34;;;;;;;92.47;53.13;;;16.10;65.40;;;;;;5000336;28;89501;-76
2024/01/31 08:59:59;;;;;;;91.55;52.78;;;16.10;65.10;;;;;;5001795;28;91098;-77
2024/01/31 09:02:25;;;;;;;91.50;52.70;;;16.10;65.30;;;;;;4990898;28;94124;-79
2024/01/31 09:04:50;;;;;;;93.22;53.33;;;16.10;65.50;;;;;;5000469;28;89755;-78
2024/01/31 09:07:16;;;;;;;90.97;52.67;;;16.10;65.40;;;;;;4999313;28;89638;-77
2024/01/31 09:09:42;;;;;;;92.97;52.92;;;16.10;65.60;;;;;;5000283;28;89643;-75
2024/01/31 09:12:08;;;;;;;91.75;52.90;;;16.10;65.40;;;;;;5004983;28;90327;-76
2024/01/31 09:14:34;;;;;;;94.68;52.65;;;16.10;64.90;;;;;;4985410;28;89888;-76
2024/01/31 09:17:00;;;;;;;91.43;52.75;;;16.10;65.00;;;;;;4998216;28;88853;-76
2024/01/31 09:19:26;;;;;;;92.20;52.90;;;16.10;65.20;;;;;;5005029;28;91788;-78
2024/01/31 09:21:51;;;;;;;92.13;52.42;;;16.10;64.80;;;;;;4998992;28;90231;-75
2024/01/31 09:24:17;;;;;;;91.55;52.75;;;16.00;64.70;;;;;;5003729;28;90862;-78
2024/01/31 09:26:43;;;;;;;91.78;52.67;;;16.10;64.50;;;;;;4985351;28;90207;-79
2024/01/31 09:29:08;;;;;;;92.45;52.75;;;16.10;64.10;;;;;;5001594;28;90001;-78
2024/01/31 09:31:34;;;;;;;92.63;52.47;;;16.10;66.30;;;;;;4985762;28;94038;-75
2024/01/31 09:34:00;;;;;;;92.20;52.58;;;16.10;66.90;;;;;;4995208;28;89967;-74
2024/01/31 09:36:26;;;;;;;92.90;52.95;;;16.10;67.20;;;;;;5006557;28;91724;-80
2024/01/31 09:38:51;;;;;;;92.05;52.83;;;16.00;66.80;;;;;;4984425;28;92474;-73
2024/01/31 09:41:18;;;;;;;91.97;52.50;;;16.10;65.90;;;;;;4988076;28;92716;-75
2024/01/31 09:43:46;;;;;;;95.30;52.95;;;16.10;65.10;;;;;;4987325;28;90165;-76
2024/01/31 09:46:13;;;;;;;93.13;52.50;;;16.10;64.50;;;;;;5003352;28;90467;-75
2024/01/31 09:48:40;;;;;;;92.60;52.72;;;16.10;64.60;;;;;;5003596;28;91600;-80
2024/01/31 09:51:07;;;;;;;94.93;52.47;;;16.10;63.90;;;;;;5000909;28;91284;-78
2024/01/31 09:53:36;;;;;;;96.32;52.60;;;16.10;63.60;;;;;;5025007;22;90309;-41
2024/01/31 09:58:29;;;;;;;95.05;52.40;;;16.10;63.20;;;;;;5001445;22;90841;-71
2024/01/31 10:00:57;;;;;;;99.57;52.40;;;16.10;63.30;;;;;;5018144;27;90232;-68
2024/01/31 10:03:24;;;;;;;94.25;52.45;;;16.00;63.50;;;;;;5019418;27;89756;-71
2024/01/31 10:05:50;;;;;;;95.30;51.92;;;16.10;63.70;;;;;;5013336;27;88879;-71
2024/01/31 10:08:16;;;;;;;91.88;51.75;;;16.00;63.50;;;;;;5014188;27;90210;-68
2024/01/31 10:10:41;;;;;;;95.50;52.33;;;16.00;63.30;;;;;;5015425;27;95870;-70
2024/01/31 10:13:08;;;;;;;93.85;52.00;;;16.10;63.30;;;;;;5015937;27;90787;-66
2024/01/31 10:15:33;;;;;;;99.00;52.38;;;16.20;62.60;;;;;;5018165;27;90089;-69
2024/01/31 10:17:59;;;;;;;95.63;52.10;;;16.10;62.30;;;;;;5015945;27;90562;-70
2024/01/31 10:20:25;;;;;;;92.80;52.08;;;16.10;62.10;;;;;;5013058;27;93585;-68
2024/01/31 10:22:51;;;;;;;94.60;52.40;;;16.10;62.20;;;;;;5013752;27;90469;-70
2024/01/31 10:25:18;;;;;;;95.03;52.22;;;16.20;62.50;;;;;;5008528;27;90737;-68
2024/01/31 10:27:47;;;;;;;94.03;52.28;;;16.30;62.20;;;;;;5010415;27;90397;-68
2024/01/31 10:30:14;;;;;;;96.05;52.55;;;16.20;61.80;;;;;;5001160;27;89763;-71
2024/01/31 10:32:40;;;;;;;97.35;52.55;;;16.30;61.90;;;;;;5018509;28;89757;-69
2024/01/31 10:35:07;;;;;;;91.97;52.05;;;16.20;62.20;;;;;;5016005;27;89705;-69
2024/01/31 10:37:34;;;;;;;96.15;51.95;;;16.20;62.20;;;;;;5014958;27;91251;-69
2024/01/31 10:40:00;;;;;;;91.95;51.63;;;16.20;62.30;;;;;;4993349;27;90413;-73
2024/01/31 10:42:26;;;;;;;94.35;51.95;;;16.10;61.90;;;;;;5009000;27;89819;-69
2024/01/31 10:44:53;;;;;;;93.13;52.10;;;16.10;62.20;;;;;;4993142;28;89353;-71
2024/01/31 10:47:19;;;;;;;95.85;52.60;;;16.10;62.20;;;;;;5005752;27;90619;-69
2024/01/31 10:49:44;;;;;;;94.05;52.40;;;16.20;62.30;;;;;;5000612;28;91698;-71
2024/01/31 10:52:13;;;;;;;92.80;52.20;;;16.20;62.20;;;;;;5015929;27;90634;-70
2024/01/31 10:54:44;;;;;;;92.95;52.33;;;16.20;61.70;;;;;;5005485;27;89876;-70
2024/01/31 10:57:11;;;;;;;91.95;52.13;;;16.20;61.80;;;;;;5012409;27;90131;-69
2024/01/31 10:59:37;;;;;;;91.43;51.78;;;16.20;61.70;;;;;;5010520;27;94743;-70
2024/01/31 11:02:03;;;;;;;93.43;52.53;;;16.20;61.40;;;;;;5013562;27;90526;-69
2024/01/31 11:04:29;;;;;;;93.95;52.45;;;16.20;61.20;;;;;;5011989;27;90022;-70
2024/01/31 11:07:03;;;;;;;92.18;52.15;;;16.20;61.40;;;;;;5001144;27;90511;-71
2024/01/31 11:09:28;;;;;;;92.65;51.85;;;16.30;60.80;;;;;;5018738;27;91425;-71
2024/01/31 11:12:11;;;;;;;92.72;52.45;;;16.30;60.80;;;;;;5010328;28;89897;-73
2024/01/31 11:14:39;;;;;;;94.65;51.95;;;16.30;60.90;;;;;;5016642;27;89952;-70
2024/01/31 11:17:12;;;;;;;95.35;52.35;;;16.30;61.00;;;;;;5004773;27;89502;-70
2024/01/31 11:20:02;;;;;;;91.85;51.45;;;16.20;61.10;;;;;;5005956;27;89078;-70
2024/01/31 11:22:31;;;;;;;94.90;51.90;;;16.20;61.20;;;;;;5011262;27;90545;-67
2024/01/31 11:25:02;;;;;;;94.43;51.97;;;16.30;61.20;;;;;;5011377;22;92353;-42
2024/01/31 11:27:28;;;;;;;91.93;52.15;;;16.30;61.10;;;;;;4989429;28;90839;-39
2024/01/31 11:29:55;;;;;;;93.13;52.25;;;16.30;60.60;;;;;;4990678;28;90342;-39
2024/01/31 11:32:22;;;;;;;92.43;51.83;;;16.30;60.30;;;;;;4991410;28;90072;-37
2024/01/31 11:37:22;;;;;;;91.78;52.95;;;16.30;60.30;;;;;;5020885;22;91177;-81
2024/01/31 11:39:47;;;;;;;90.97;52.50;;;16.30;60.30;;;;;;5013667;27;90749;-82
2024/01/31 11:42:14;;;;;;;91.78;51.92;;;16.20;60.60;;;;;;5038158;22;92325;-70
2024/01/31 11:44:40;;;;;;;94.38;52.20;;;16.20;60.60;;;;;;5011630;27;89953;-71
2024/01/31 11:49:33;;;;;;;92.57;51.83;;;16.30;60.40;;;;;;5025038;22;91006;-70
2024/01/31 11:51:59;;;;;;;92.88;52.25;;;16.30;60.30;;;;;;5031865;27;91010;-65
2024/01/31 11:54:25;;;;;;;94.95;52.42;;;16.30;60.40;;;;;;5027581;22;92552;-42
2024/01/31 11:59:18;;;;;;;90.55;51.92;;;16.30;60.20;;;;;;5010164;27;90000;-41
2024/01/31 12:01:44;;;;;;;95.85;51.70;;;16.20;60.10;;;;;;5018313;22;93105;-67
2024/01/31 12:04:11;;;;;;;93.10;52.03;;;16.20;60.20;;;;;;5013685;27;89817;-67
2024/01/31 12:06:37;;;;;;;92.45;52.25;;;16.20;60.30;;;;;;5017894;27;90742;-68
2024/01/31 12:09:04;;;;;;;92.50;52.28;;;16.30;60.00;;;;;;5009831;27;90172;-68
2024/01/31 12:11:32;;;;;;;93.20;52.00;;;16.30;60.00;;;;;;5013971;27;89599;-70
2024/01/31 12:13:58;;;;;;;92.95;52.05;;;16.30;60.10;;;;;;5008355;28;90007;-70
2024/01/31 12:16:24;;;;;;;92.65;52.33;;;16.40;60.00;;;;;;5014113;22;91850;-41
2024/01/31 12:19:02;;;;;;;92.72;51.90;;;16.40;59.90;;;;;;4984268;28;92226;-39
2024/01/31 12:21:28;;;;;;;91.70;52.00;;;16.40;59.70;;;;;;4985364;28;89769;-48
2024/01/31 12:23:53;;;;;;;91.97;52.03;;;16.40;59.70;;;;;;4987786;28;90907;-40
2024/01/31 12:26:19;;;;;;;92.05;52.08;;;16.40;59.70;;;;;;4999095;22;90552;-69
2024/01/31 12:28:58;;;;;;;94.63;52.10;;;16.40;59.70;;;;;;5023409;27;89957;-71
2024/01/31 12:31:24;;;;;;;93.03;52.22;;;16.40;59.60;;;;;;5023510;27;90368;-71
2024/01/31 12:33:50;;;;;;;92.90;52.28;;;16.50;59.50;;;;;;5022247;27;89156;-68